sensor_id;sensor_type;location;lat;lon;timestamp;temperature;humidity
43185;DHT22;28803;52.308;19.096;2024-01-15T00:00:40;0.70;99.90
43185;DHT22;28803;52.308;19.096;2024-01-15T00:03:27;0.70;99.90
43185;DHT22;28803;52.308;19.096;2024-01-15T00:05:55;0.70;99.90
43185;DHT22;28803;52.308;19.096;2024-01-15T00:08:22;0.70;99.90
43185;DHT22;28803;52.308;19.096;2024-01-15T00:10:50;0.60;99.90
43185;DHT22;28803;52.308;19.096;2024-01-15T00:13:17;0.70;99.90
43185;DHT22;28803;52.308;19.096;2024-01-15T00:15:44;0.70;99.90
43185;DHT22;28803;52.308;19.096;2024-01-15T00:18:12;0.70;99.90
43185;DHT22;28803;52.308;19.096;2024-01-15T00:20:39;0.70;99.90
43185;DHT22;28803;52.308;19.096;2024-01-15T00:23:07;0.70;99.90
43185;DHT22;28803;52.308;19.096;2024-01-15T00:25:34;0.70;99.90
43185;DHT22;28803;52.308;19.096;2024-01-15T00:28:01;0.60;99.90
43185;DHT22;28803;52.308;19.096;2024-01-15T00:30:28;0.60;99.90
43185;DHT22;28803;52.308;19.096;2024-01-15T00:32:56;0.70;99.90
43185;DHT22;28803;52.308;19.096;2024-01-15T00:35:23;0.70;99.90
43185;DHT22;28803;52.308;19.096;2024-01-15T00:37:51;0.60;99.90
43185;DHT22;28803;52.308;19.096;2024-01-15T00:40:18;0.70;99.90
43185;DHT22;28803;52.308;19.096;2024-01-15T00:42:45;0.70;99.90
43185;DHT22;28803;52.308;19.096;2024-01-15T00:45:12;0.70;99.90
43185;DHT22;28803;52.308;19.096;2024-01-15T00:47:40;0.70;99.90
43185;DHT22;28803;52.308;19.096;2024-01-15T00:50:07;0.70;99.90
43185;DHT22;28803;52.308;19.096;2024-01-15T00:52:35;0.70;99.90
43185;DHT22;28803;52.308;19.096;2024-01-15T00:55:03;0.70;99.90
43185;DHT22;28803;52.308;19.096;2024-01-15T00:57:30;0.70;99.90
43185;DHT22;28803;52.308;19.096;2024-01-15T00:59:57;0.70;99.90
43185;DHT22;28803;52.308;19.096;2024-01-15T01:02:26;0.70;99.90
43185;DHT22;28803;52.308;19.096;2024-01-15T01:04:53;0.70;99.90
43185;DHT22;28803;52.308;19.096;2024-01-15T01:07:20;0.70;99.90
43185;DHT22;28803;52.308;19.096;2024-01-15T01:09:47;0.80;99.90
43185;DHT22;28803;52.308;19.096;2024-01-15T01:12:15;0.80;99.90
43185;DHT22;28803;52.308;19.096;2024-01-15T01:14:42;0.80;99.90
43185;DHT22;28803;52.308;19.096;2024-01-15T01:17:10;0.70;99.30
43185;DHT22;28803;52.308;19.096;2024-01-15T01:19:37;0.70;98.40
43185;DHT22;28803;52.308;19.096;2024-01-15T01:22:05;0.70;97.60
43185;DHT22;28803;52.308;19.096;2024-01-15T01:24:33;0.70;97.50
43185;DHT22;28803;52.308;19.096;2024-01-15T01:27:00;0.70;97.50
43185;DHT22;28803;52.308;19.096;2024-01-15T01:29:28;0.60;98.50
43185;DHT22;28803;52.308;19.096;2024-01-15T01:31:55;0.60;99.90
43185;DHT22;28803;52.308;19.096;2024-01-15T01:34:23;0.60;99.90
43185;DHT22;28803;52.308;19.096;2024-01-15T01:36:51;0.60;99.90
43185;DHT22;28803;52.308;19.096;2024-01-15T01:39:18;0.60;99.90
43185;DHT22;28803;52.308;19.096;2024-01-15T01:41:45;0.60;99.90
43185;DHT22;28803;52.308;19.096;2024-01-15T01:44:12;0.50;99.90
43185;DHT22;28803;52.308;19.096;2024-01-15T01:46:40;0.60;99.90
43185;DHT22;28803;52.308;19.096;2024-01-15T01:49:09;0.60;99.90
43185;DHT22;28803;52.308;19.096;2024-01-15T01:51:37;0.60;99.90
43185;DHT22;28803;52.308;19.096;2024-01-15T01:54:07;0.60;99.90
43185;DHT22;28803;52.308;19.096;2024-01-15T01:56:36;0.60;99.90
43185;DHT22;28803;52.308;19.096;2024-01-15T01:59:04;0.60;99.90
43185;DHT22;28803;52.308;19.096;2024-01-15T02:01:32;0.50;99.90
43185;DHT22;28803;52.308;19.096;2024-01-15T02:04:00;0.50;99.90
43185;DHT22;28803;52.308;19.096;2024-01-15T02:06:28;0.50;99.90
43185;DHT22;28803;52.308;19.096;2024-01-15T02:08:55;0.50;99.90
43185;DHT22;28803;52.308;19.096;2024-01-15T02:11:23;0.50;99.90
43185;DHT22;28803;52.308;19.096;2024-01-15T02:13:50;0.50;99.90
43185;DHT22;28803;52.308;19.096;2024-01-15T02:16:18;0.50;99.90
43185;DHT22;28803;52.308;19.096;2024-01-15T02:18:46;0.50;99.90
43185;DHT22;28803;52.308;19.096;2024-01-15T02:21:14;0.60;99.90
43185;DHT22;28803;52.308;19.096;2024-01-15T02:23:41;0.50;99.90
43185;DHT22;28803;52.308;19.096;2024-01-15T02:26:09;0.60;99.90
43185;DHT22;28803;52.308;19.096;2024-01-15T02:28:36;0.60;99.90
43185;DHT22;28803;52.308;19.096;2024-01-15T02:31:04;0.60;99.90
43185;DHT22;28803;52.308;19.096;2024-01-15T02:33:31;0.50;99.90
43185;DHT22;28803;52.308;19.096;2024-01-15T02:35:59;0.50;99.90
43185;DHT22;28803;52.308;19.096;2024-01-15T02:38:26;0.60;99.90
43185;DHT22;28803;52.308;19.096;2024-01-15T02:40:53;0.50;99.90
43185;DHT22;28803;52.308;19.096;2024-01-15T02:43:20;0.60;99.90
43185;DHT22;28803;52.308;19.096;2024-01-15T02:45:47;0.50;99.90
43185;DHT22;28803;52.308;19.096;2024-01-15T02:48:15;0.50;99.90
43185;DHT22;28803;52.308;19.096;2024-01-15T02:50:42;0.60;99.90
43185;DHT22;28803;52.308;19.096;2024-01-15T02:53:09;0.60;99.90
43185;DHT22;28803;52.308;19.096;2024-01-15T02:55:37;0.50;99.90
43185;DHT22;28803;52.308;19.096;2024-01-15T02:58:04;0.50;99.90
43185;DHT22;28803;52.308;19.096;2024-01-15T03:00:32;0.60;99.90
43185;DHT22;28803;52.308;19.096;2024-01-15T03:02:59;0.50;99.90
43185;DHT22;28803;52.308;19.096;2024-01-15T03:05:27;0.60;99.90
43185;DHT22;28803;52.308;19.096;2024-01-15T03:07:54;0.60;99.90
43185;DHT22;28803;52.308;19.096;2024-01-15T03:10:21;0.60;99.90
43185;DHT22;28803;52.308;19.096;2024-01-15T03:12:48;0.60;99.90
43185;DHT22;28803;52.308;19.096;2024-01-15T03:15:16;0.60;99.90
43185;DHT22;28803;52.308;19.096;2024-01-15T03:17:43;0.60;99.90
43185;DHT22;28803;52.308;19.096;2024-01-15T03:20:11;0.60;99.90
43185;DHT22;28803;52.308;19.096;2024-01-15T03:22:39;0.60;99.90
43185;DHT22;28803;52.308;19.096;2024-01-15T03:25:07;0.50;99.90
43185;DHT22;28803;52.308;19.096;2024-01-15T03:27:34;0.50;99.90
43185;DHT22;28803;52.308;19.096;2024-01-15T03:30:02;0.60;99.90
43185;DHT22;28803;52.308;19.096;2024-01-15T03:32:30;0.50;99.90
43185;DHT22;28803;52.308;19.096;2024-01-15T03:34:57;0.50;99.90
43185;DHT22;28803;52.308;19.096;2024-01-15T03:37:25;0.50;99.90
43185;DHT22;28803;52.308;19.096;2024-01-15T03:39:52;0.50;99.90
43185;DHT22;28803;52.308;19.096;2024-01-15T03:42:19;0.50;99.90
43185;DHT22;28803;52.308;19.096;2024-01-15T03:44:47;0.50;99.90
43185;DHT22;28803;52.308;19.096;2024-01-15T03:47:14;0.50;99.90
43185;DHT22;28803;52.308;19.096;2024-01-15T03:49:41;0.50;99.90
43185;DHT22;28803;52.308;19.096;2024-01-15T03:52:09;0.50;99.90
43185;DHT22;28803;52.308;19.096;2024-01-15T03:54:36;0.50;99.90
43185;DHT22;28803;52.308;19.096;2024-01-15T03:57:04;0.50;99.90
43185;DHT22;28803;52.308;19.096;2024-01-15T03:59:32;0.50;99.90
43185;DHT22;28803;52.308;19.096;2024-01-15T04:02:00;0.50;99.90
43185;DHT22;28803;52.308;19.096;2024-01-15T04:04:28;0.50;99.90
43185;DHT22;28803;52.308;19.096;2024-01-15T04:06:55;0.50;99.90
43185;DHT22;28803;52.308;19.096;2024-01-15T04:09:22;0.50;99.90
43185;DHT22;28803;52.308;19.096;2024-01-15T04:11:50;0.60;99.90
43185;DHT22;28803;52.308;19.096;2024-01-15T04:14:17;0.60;99.90
43185;DHT22;28803;52.308;19.096;2024-01-15T04:16:44;0.60;99.90
43185;DHT22;28803;52.308;19.096;2024-01-15T04:19:11;0.60;99.90
43185;DHT22;28803;52.308;19.096;2024-01-15T04:21:39;0.60;99.90
43185;DHT22;28803;52.308;19.096;2024-01-15T04:24:06;0.50;99.90
43185;DHT22;28803;52.308;19.096;2024-01-15T04:26:33;0.50;99.90
43185;DHT22;28803;52.308;19.096;2024-01-15T04:29:01;0.50;99.90
43185;DHT22;28803;52.308;19.096;2024-01-15T04:31:28;0.50;99.90
43185;DHT22;28803;52.308;19.096;2024-01-15T04:33:56;0.60;99.90
43185;DHT22;28803;52.308;19.096;2024-01-15T04:36:23;0.60;99.90
43185;DHT22;28803;52.308;19.096;2024-01-15T04:38:51;0.50;99.90
43185;DHT22;28803;52.308;19.096;2024-01-15T04:41:18;0.60;99.90
43185;DHT22;28803;52.308;19.096;2024-01-15T04:43:46;0.60;99.90
43185;DHT22;28803;52.308;19.096;2024-01-15T04:46:13;0.60;99.90
43185;DHT22;28803;52.308;19.096;2024-01-15T04:48:41;0.60;99.90
43185;DHT22;28803;52.308;19.096;2024-01-15T04:51:11;0.60;99.90
43185;DHT22;28803;52.308;19.096;2024-01-15T04:53:38;0.60;99.90
43185;DHT22;28803;52.308;19.096;2024-01-15T04:56:05;0.50;99.90
43185;DHT22;28803;52.308;19.096;2024-01-15T04:58:33;0.60;99.90
43185;DHT22;28803;52.308;19.096;2024-01-15T05:01:00;0.60;99.90
43185;DHT22;28803;52.308;19.096;2024-01-15T05:03:28;0.60;97.80
43185;DHT22;28803;52.308;19.096;2024-01-15T05:05:55;0.60;96.40
43185;DHT22;28803;52.308;19.096;2024-01-15T05:08:22;0.60;93.70
43185;DHT22;28803;52.308;19.096;2024-01-15T05:10:50;0.50;90.70
43185;DHT22;28803;52.308;19.096;2024-01-15T05:13:17;0.60;83.40
43185;DHT22;28803;52.308;19.096;2024-01-15T05:15:44;0.60;75.70
43185;DHT22;28803;52.308;19.096;2024-01-15T05:18:12;0.60;66.40
43185;DHT22;28803;52.308;19.096;2024-01-15T05:20:39;0.60;63.00
43185;DHT22;28803;52.308;19.096;2024-01-15T05:23:07;0.60;60.70
43185;DHT22;28803;52.308;19.096;2024-01-15T05:25:34;0.50;59.60
43185;DHT22;28803;52.308;19.096;2024-01-15T05:28:02;0.50;63.30
43185;DHT22;28803;52.308;19.096;2024-01-15T05:30:29;0.50;70.50
43185;DHT22;28803;52.308;19.096;2024-01-15T05:32:56;0.40;78.20
43185;DHT22;28803;52.308;19.096;2024-01-15T05:35:24;0.40;86.20
43185;DHT22;28803;52.308;19.096;2024-01-15T05:37:52;0.40;92.20
43185;DHT22;28803;52.308;19.096;2024-01-15T05:40:19;0.40;96.50
43185;DHT22;28803;52.308;19.096;2024-01-15T05:42:46;0.30;99.80
43185;DHT22;28803;52.308;19.096;2024-01-15T05:45:14;0.30;99.90
43185;DHT22;28803;52.308;19.096;2024-01-15T05:47:41;0.30;99.90
43185;DHT22;28803;52.308;19.096;2024-01-15T05:50:09;0.30;99.90
43185;DHT22;28803;52.308;19.096;2024-01-15T05:52:36;0.30;99.90
43185;DHT22;28803;52.308;19.096;2024-01-15T05:55:04;0.30;99.90
43185;DHT22;28803;52.308;19.096;2024-01-15T05:57:32;0.30;99.90
43185;DHT22;28803;52.308;19.096;2024-01-15T06:00:00;0.30;99.90
43185;DHT22;28803;52.308;19.096;2024-01-15T06:02:28;0.30;99.90
43185;DHT22;28803;52.308;19.096;2024-01-15T06:04:55;0.30;99.90
43185;DHT22;28803;52.308;19.096;2024-01-15T06:07:23;0.30;99.90
43185;DHT22;28803;52.308;19.096;2024-01-15T06:09:50;0.30;99.90
43185;DHT22;28803;52.308;19.096;2024-01-15T06:12:18;0.30;99.90
43185;DHT22;28803;52.308;19.096;2024-01-15T06:14:45;0.30;99.90
43185;DHT22;28803;52.308;19.096;2024-01-15T06:17:12;0.30;99.90
43185;DHT22;28803;52.308;19.096;2024-01-15T06:19:40;0.30;99.90
43185;DHT22;28803;52.308;19.096;2024-01-15T06:22:08;0.30;99.90
43185;DHT22;28803;52.308;19.096;2024-01-15T06:24:35;0.30;99.90
43185;DHT22;28803;52.308;19.096;2024-01-15T06:27:02;0.30;99.90
43185;DHT22;28803;52.308;19.096;2024-01-15T06:29:30;0.30;99.90
43185;DHT22;28803;52.308;19.096;2024-01-15T06:31:57;0.30;99.90
43185;DHT22;28803;52.308;19.096;2024-01-15T06:34:24;0.30;99.90
43185;DHT22;28803;52.308;19.096;2024-01-15T06:36:52;0.30;99.90
43185;DHT22;28803;52.308;19.096;2024-01-15T06:39:19;0.30;99.90
43185;DHT22;28803;52.308;19.096;2024-01-15T06:41:47;0.30;99.90
43185;DHT22;28803;52.308;19.096;2024-01-15T06:44:14;0.30;99.90
43185;DHT22;28803;52.308;19.096;2024-01-15T06:46:43;0.30;99.90
43185;DHT22;28803;52.308;19.096;2024-01-15T06:49:11;0.30;99.90
43185;DHT22;28803;52.308;19.096;2024-01-15T06:51:38;0.30;99.90
43185;DHT22;28803;52.308;19.096;2024-01-15T06:54:06;0.20;99.90
43185;DHT22;28803;52.308;19.096;2024-01-15T06:56:33;0.20;99.90
43185;DHT22;28803;52.308;19.096;2024-01-15T06:59:00;0.10;99.90
43185;DHT22;28803;52.308;19.096;2024-01-15T07:01:28;0.00;99.90
43185;DHT22;28803;52.308;19.096;2024-01-15T07:03:55;0.00;99.90
43185;DHT22;28803;52.308;19.096;2024-01-15T07:06:23;0.00;99.90
43185;DHT22;28803;52.308;19.096;2024-01-15T07:08:50;0.00;99.90
43185;DHT22;28803;52.308;19.096;2024-01-15T07:11:17;0.10;99.90
43185;DHT22;28803;52.308;19.096;2024-01-15T07:13:44;0.10;99.90
43185;DHT22;28803;52.308;19.096;2024-01-15T07:16:12;0.20;99.90
43185;DHT22;28803;52.308;19.096;2024-01-15T07:18:43;0.20;99.90
43185;DHT22;28803;52.308;19.096;2024-01-15T07:21:11;0.20;99.90
43185;DHT22;28803;52.308;19.096;2024-01-15T07:23:39;0.20;99.90
43185;DHT22;28803;52.308;19.096;2024-01-15T07:26:06;0.30;99.90
43185;DHT22;28803;52.308;19.096;2024-01-15T07:28:33;0.30;99.90
43185;DHT22;28803;52.308;19.096;2024-01-15T07:31:01;0.30;99.90
43185;DHT22;28803;52.308;19.096;2024-01-15T07:33:28;0.30;99.90
43185;DHT22;28803;52.308;19.096;2024-01-15T07:35:56;0.30;99.90
43185;DHT22;28803;52.308;19.096;2024-01-15T07:38:27;0.30;99.90
43185;DHT22;28803;52.308;19.096;2024-01-15T07:40:54;0.20;99.90
43185;DHT22;28803;52.308;19.096;2024-01-15T07:43:22;0.20;99.90
43185;DHT22;28803;52.308;19.096;2024-01-15T07:45:50;0.20;99.90
43185;DHT22;28803;52.308;19.096;2024-01-15T07:48:17;0.30;90.10
43185;DHT22;28803;52.308;19.096;2024-01-15T07:50:45;0.20;70.60
43185;DHT22;28803;52.308;19.096;2024-01-15T07:53:12;0.20;48.30
43185;DHT22;28803;52.308;19.096;2024-01-15T07:55:40;0.20;33.60
43185;DHT22;28803;52.308;19.096;2024-01-15T07:58:07;0.20;23.20
43185;DHT22;28803;52.308;19.096;2024-01-15T08:00:43;0.20;16.90
43185;DHT22;28803;52.308;19.096;2024-01-15T08:03:11;0.30;5.70
43185;DHT22;28803;52.308;19.096;2024-01-15T08:05:39;0.30;1.00
43185;DHT22;28803;52.308;19.096;2024-01-15T08:08:07;0.30;1.00
43185;DHT22;28803;52.308;19.096;2024-01-15T08:10:34;0.30;1.00
43185;DHT22;28803;52.308;19.096;2024-01-15T08:13:02;0.30;1.00
43185;DHT22;28803;52.308;19.096;2024-01-15T08:15:29;0.30;1.00
43185;DHT22;28803;52.308;19.096;2024-01-15T08:17:57;0.30;1.00
43185;DHT22;28803;52.308;19.096;2024-01-15T08:20:26;0.30;1.00
43185;DHT22;28803;52.308;19.096;2024-01-15T08:22:53;0.30;1.00
43185;DHT22;28803;52.308;19.096;2024-01-15T08:25:21;0.30;1.00
43185;DHT22;28803;52.308;19.096;2024-01-15T08:27:48;0.40;1.00
43185;DHT22;28803;52.308;19.096;2024-01-15T08:30:16;0.40;1.00
43185;DHT22;28803;52.308;19.096;2024-01-15T08:32:44;0.40;1.00
43185;DHT22;28803;52.308;19.096;2024-01-15T08:35:11;0.50;1.00
43185;DHT22;28803;52.308;19.096;2024-01-15T08:37:39;0.50;1.00
43185;DHT22;28803;52.308;19.096;2024-01-15T08:40:06;0.50;1.00
43185;DHT22;28803;52.308;19.096;2024-01-15T08:42:34;0.50;1.00
43185;DHT22;28803;52.308;19.096;2024-01-15T08:45:02;0.50;1.00
43185;DHT22;28803;52.308;19.096;2024-01-15T08:47:29;0.50;1.00
43185;DHT22;28803;52.308;19.096;2024-01-15T08:49:57;0.50;1.00
43185;DHT22;28803;52.308;19.096;2024-01-15T08:52:25;0.50;1.00
43185;DHT22;28803;52.308;19.096;2024-01-15T08:54:53;0.40;1.00
43185;DHT22;28803;52.308;19.096;2024-01-15T08:57:21;0.40;1.00
43185;DHT22;28803;52.308;19.096;2024-01-15T08:59:49;0.50;1.00
43185;DHT22;28803;52.308;19.096;2024-01-15T09:02:18;0.50;1.00
43185;DHT22;28803;52.308;19.096;2024-01-15T09:04:45;0.50;1.00
43185;DHT22;28803;52.308;19.096;2024-01-15T09:07:12;0.60;1.00
43185;DHT22;28803;52.308;19.096;2024-01-15T09:09:40;0.60;1.00
43185;DHT22;28803;52.308;19.096;2024-01-15T09:12:09;0.70;1.00
43185;DHT22;28803;52.308;19.096;2024-01-15T09:14:36;0.70;1.00
43185;DHT22;28803;52.308;19.096;2024-01-15T09:17:04;0.70;1.00
43185;DHT22;28803;52.308;19.096;2024-01-15T09:19:32;0.70;1.00
43185;DHT22;28803;52.308;19.096;2024-01-15T09:22:00;0.70;1.00
43185;DHT22;28803;52.308;19.096;2024-01-15T09:24:27;0.70;1.00
43185;DHT22;28803;52.308;19.096;2024-01-15T09:26:55;0.70;1.00
43185;DHT22;28803;52.308;19.096;2024-01-15T09:29:23;0.80;1.00
43185;DHT22;28803;52.308;19.096;2024-01-15T09:31:51;1.30;1.00
43185;DHT22;28803;52.308;19.096;2024-01-15T09:34:20;1.30;99.90
43185;DHT22;28803;52.308;19.096;2024-01-15T09:36:47;1.10;99.90
43185;DHT22;28803;52.308;19.096;2024-01-15T09:39:16;1.30;99.90
43185;DHT22;28803;52.308;19.096;2024-01-15T09:41:43;1.30;99.90
43185;DHT22;28803;52.308;19.096;2024-01-15T09:44:12;1.30;99.90
43185;DHT22;28803;52.308;19.096;2024-01-15T09:46:40;1.10;99.90
43185;DHT22;28803;52.308;19.096;2024-01-15T09:49:08;1.10;99.90
43185;DHT22;28803;52.308;19.096;2024-01-15T09:51:36;1.10;99.90
43185;DHT22;28803;52.308;19.096;2024-01-15T09:54:04;1.10;99.90
43185;DHT22;28803;52.308;19.096;2024-01-15T09:56:31;1.00;99.90
43185;DHT22;28803;52.308;19.096;2024-01-15T09:59:00;1.00;99.90
43185;DHT22;28803;52.308;19.096;2024-01-15T10:01:28;1.00;99.90
43185;DHT22;28803;52.308;19.096;2024-01-15T10:03:56;1.00;99.90
43185;DHT22;28803;52.308;19.096;2024-01-15T10:06:26;0.90;99.90
43185;DHT22;28803;52.308;19.096;2024-01-15T10:08:56;0.90;99.90
43185;DHT22;28803;52.308;19.096;2024-01-15T10:11:25;1.00;99.90
43185;DHT22;28803;52.308;19.096;2024-01-15T10:13:52;0.90;99.90
43185;DHT22;28803;52.308;19.096;2024-01-15T10:16:23;0.90;99.90
43185;DHT22;28803;52.308;19.096;2024-01-15T10:18:51;0.90;99.90
43185;DHT22;28803;52.308;19.096;2024-01-15T10:21:18;0.90;99.90
43185;DHT22;28803;52.308;19.096;2024-01-15T10:23:46;0.80;99.90
43185;DHT22;28803;52.308;19.096;2024-01-15T10:26:14;0.90;99.90
43185;DHT22;28803;52.308;19.096;2024-01-15T10:28:45;0.90;99.90
43185;DHT22;28803;52.308;19.096;2024-01-15T10:31:12;0.90;99.90
43185;DHT22;28803;52.308;19.096;2024-01-15T10:33:39;1.00;99.90
43185;DHT22;28803;52.308;19.096;2024-01-15T10:36:09;0.90;99.90
43185;DHT22;28803;52.308;19.096;2024-01-15T10:38:37;1.00;99.90
43185;DHT22;28803;52.308;19.096;2024-01-15T10:41:05;1.00;99.90
43185;DHT22;28803;52.308;19.096;2024-01-15T10:43:32;0.90;99.90
43185;DHT22;28803;52.308;19.096;2024-01-15T10:46:01;0.90;99.90
43185;DHT22;28803;52.308;19.096;2024-01-15T10:48:29;0.90;99.90
43185;DHT22;28803;52.308;19.096;2024-01-15T10:50:58;0.90;99.90
43185;DHT22;28803;52.308;19.096;2024-01-15T10:53:26;0.80;99.90
43185;DHT22;28803;52.308;19.096;2024-01-15T10:55:54;0.80;99.90
43185;DHT22;28803;52.308;19.096;2024-01-15T10:58:24;0.80;99.90
43185;DHT22;28803;52.308;19.096;2024-01-15T11:00:55;0.80;99.90
43185;DHT22;28803;52.308;19.096;2024-01-15T11:03:24;0.80;99.90
43185;DHT22;28803;52.308;19.096;2024-01-15T11:05:53;0.80;99.90
43185;DHT22;28803;52.308;19.096;2024-01-15T11:08:21;0.80;99.90
43185;DHT22;28803;52.308;19.096;2024-01-15T11:10:51;0.80;99.90
43185;DHT22;28803;52.308;19.096;2024-01-15T11:13:21;0.90;99.90
43185;DHT22;28803;52.308;19.096;2024-01-15T11:16:05;0.90;99.90
43185;DHT22;28803;52.308;19.096;2024-01-15T11:18:43;0.80;99.90
43185;DHT22;28803;52.308;19.096;2024-01-15T11:21:28;0.80;99.90
43185;DHT22;28803;52.308;19.096;2024-01-15T11:23:59;0.90;1.00
43185;DHT22;28803;52.308;19.096;2024-01-15T11:32:09;1.10;99.90
43185;DHT22;28803;52.308;19.096;2024-01-15T11:34:51;1.20;99.90
43185;DHT22;28803;52.308;19.096;2024-01-15T11:37:20;1.10;99.90
43185;DHT22;28803;52.308;19.096;2024-01-15T11:39:47;1.10;99.90
43185;DHT22;28803;52.308;19.096;2024-01-15T11:42:15;1.10;99.90
43185;DHT22;28803;52.308;19.096;2024-01-15T11:44:43;1.10;99.90
43185;DHT22;28803;52.308;19.096;2024-01-15T11:47:12;1.10;99.90
43185;DHT22;28803;52.308;19.096;2024-01-15T11:49:58;1.10;99.90
43185;DHT22;28803;52.308;19.096;2024-01-15T11:52:35;1.20;99.90
43185;DHT22;28803;52.308;19.096;2024-01-15T11:55:27;1.30;99.90
43185;DHT22;28803;52.308;19.096;2024-01-15T11:57:57;1.40;99.90
43185;DHT22;28803;52.308;19.096;2024-01-15T12:00:28;1.40;99.90
43185;DHT22;28803;52.308;19.096;2024-01-15T12:02:55;1.40;99.90
43185;DHT22;28803;52.308;19.096;2024-01-15T12:05:25;1.40;99.90
43185;DHT22;28803;52.308;19.096;2024-01-15T12:07:52;1.40;99.90
43185;DHT22;28803;52.308;19.096;2024-01-15T12:10:21;1.30;99.90
43185;DHT22;28803;52.308;19.096;2024-01-15T12:13:02;1.30;99.90
43185;DHT22;28803;52.308;19.096;2024-01-15T12:15:33;1.30;99.90
43185;DHT22;28803;52.308;19.096;2024-01-15T12:18:01;1.30;99.90
43185;DHT22;28803;52.308;19.096;2024-01-15T12:20:32;1.30;99.90
43185;DHT22;28803;52.308;19.096;2024-01-15T12:23:01;1.30;99.90
43185;DHT22;28803;52.308;19.096;2024-01-15T12:25:33;1.30;99.90
43185;DHT22;28803;52.308;19.096;2024-01-15T12:28:01;1.30;99.90
43185;DHT22;28803;52.308;19.096;2024-01-15T12:30:30;1.30;99.90
43185;DHT22;28803;52.308;19.096;2024-01-15T12:33:04;1.30;99.90
43185;DHT22;28803;52.308;19.096;2024-01-15T12:35:34;1.40;99.90
43185;DHT22;28803;52.308;19.096;2024-01-15T12:38:01;1.40;99.90
43185;DHT22;28803;52.308;19.096;2024-01-15T12:40:33;1.40;99.90
43185;DHT22;28803;52.308;19.096;2024-01-15T12:43:03;1.40;99.90
43185;DHT22;28803;52.308;19.096;2024-01-15T12:45:32;1.40;99.90
43185;DHT22;28803;52.308;19.096;2024-01-15T12:47:59;1.40;99.90
43185;DHT22;28803;52.308;19.096;2024-01-15T12:50:28;1.40;99.90
43185;DHT22;28803;52.308;19.096;2024-01-15T12:52:55;1.40;99.90
43185;DHT22;28803;52.308;19.096;2024-01-15T12:55:23;1.40;99.90
43185;DHT22;28803;52.308;19.096;2024-01-15T12:57:50;1.30;99.90
43185;DHT22;28803;52.308;19.096;2024-01-15T13:00:21;1.30;99.90
43185;DHT22;28803;52.308;19.096;2024-01-15T13:02:48;1.40;99.90
43185;DHT22;28803;52.308;19.096;2024-01-15T13:05:17;1.40;96.00
43185;DHT22;28803;52.308;19.096;2024-01-15T13:07:46;1.40;99.90
43185;DHT22;28803;52.308;19.096;2024-01-15T13:10:14;1.40;99.90
43185;DHT22;28803;52.308;19.096;2024-01-15T13:12:41;1.40;99.90
43185;DHT22;28803;52.308;19.096;2024-01-15T13:15:09;1.40;99.90
43185;DHT22;28803;52.308;19.096;2024-01-15T13:17:41;1.40;99.90
43185;DHT22;28803;52.308;19.096;2024-01-15T13:20:11;1.40;99.90
43185;DHT22;28803;52.308;19.096;2024-01-15T13:22:39;1.30;99.90
43185;DHT22;28803;52.308;19.096;2024-01-15T13:25:08;1.30;99.90
43185;DHT22;28803;52.308;19.096;2024-01-15T13:27:36;1.30;99.90
43185;DHT22;28803;52.308;19.096;2024-01-15T13:30:06;1.40;99.90
43185;DHT22;28803;52.308;19.096;2024-01-15T13:32:35;1.40;99.90
43185;DHT22;28803;52.308;19.096;2024-01-15T13:35:03;1.40;99.90
43185;DHT22;28803;52.308;19.096;2024-01-15T13:37:34;1.40;99.90
43185;DHT22;28803;52.308;19.096;2024-01-15T13:40:02;1.40;99.90
43185;DHT22;28803;52.308;19.096;2024-01-15T13:42:30;1.30;47.70
43185;DHT22;28803;52.308;19.096;2024-01-15T13:44:58;1.30;73.90
43185;DHT22;28803;52.308;19.096;2024-01-15T13:47:25;1.20;98.90
43185;DHT22;28803;52.308;19.096;2024-01-15T13:49:53;1.20;99.90
43185;DHT22;28803;52.308;19.096;2024-01-15T13:52:20;1.20;99.90
43185;DHT22;28803;52.308;19.096;2024-01-15T13:54:48;1.20;99.90
43185;DHT22;28803;52.308;19.096;2024-01-15T13:57:17;1.10;99.90
43185;DHT22;28803;52.308;19.096;2024-01-15T13:59:47;1.20;99.90
43185;DHT22;28803;52.308;19.096;2024-01-15T14:02:16;1.20;99.90
43185;DHT22;28803;52.308;19.096;2024-01-15T14:04:48;1.20;99.90
43185;DHT22;28803;52.308;19.096;2024-01-15T14:07:16;1.20;99.90
43185;DHT22;28803;52.308;19.096;2024-01-15T14:09:44;1.20;99.90
43185;DHT22;28803;52.308;19.096;2024-01-15T14:12:11;1.20;99.90
43185;DHT22;28803;52.308;19.096;2024-01-15T14:14:39;1.20;99.90
43185;DHT22;28803;52.308;19.096;2024-01-15T14:17:07;1.20;99.90
43185;DHT22;28803;52.308;19.096;2024-01-15T14:19:35;1.20;99.90
43185;DHT22;28803;52.308;19.096;2024-01-15T14:22:03;1.20;99.90
43185;DHT22;28803;52.308;19.096;2024-01-15T14:24:31;1.10;90.60
43185;DHT22;28803;52.308;19.096;2024-01-15T14:26:58;1.10;99.90
43185;DHT22;28803;52.308;19.096;2024-01-15T14:29:26;1.10;99.90
43185;DHT22;28803;52.308;19.096;2024-01-15T14:31:54;1.10;99.90
43185;DHT22;28803;52.308;19.096;2024-01-15T14:34:21;1.10;99.90
43185;DHT22;28803;52.308;19.096;2024-01-15T14:36:52;1.10;99.90
43185;DHT22;28803;52.308;19.096;2024-01-15T14:39:23;1.10;99.90
43185;DHT22;28803;52.308;19.096;2024-01-15T14:41:52;1.10;99.90
43185;DHT22;28803;52.308;19.096;2024-01-15T14:44:19;1.10;99.90
43185;DHT22;28803;52.308;19.096;2024-01-15T14:46:48;1.10;99.90
43185;DHT22;28803;52.308;19.096;2024-01-15T14:49:15;1.10;99.90
43185;DHT22;28803;52.308;19.096;2024-01-15T14:51:44;1.00;99.90
43185;DHT22;28803;52.308;19.096;2024-01-15T14:54:12;0.90;99.90
43185;DHT22;28803;52.308;19.096;2024-01-15T14:56:39;0.60;99.90
43185;DHT22;28803;52.308;19.096;2024-01-15T14:59:06;0.30;99.90
43185;DHT22;28803;52.308;19.096;2024-01-15T15:01:34;0.10;99.90
43185;DHT22;28803;52.308;19.096;2024-01-15T15:04:08;-0.10;1.00
43185;DHT22;28803;52.308;19.096;2024-01-15T15:06:38;-0.20;1.00
43185;DHT22;28803;52.308;19.096;2024-01-15T15:09:06;-0.30;1.00
43185;DHT22;28803;52.308;19.096;2024-01-15T15:11:37;-0.30;1.00
43185;DHT22;28803;52.308;19.096;2024-01-15T15:14:04;-0.30;1.00
43185;DHT22;28803;52.308;19.096;2024-01-15T15:16:31;-0.30;1.00
43185;DHT22;28803;52.308;19.096;2024-01-15T15:18:59;-0.30;1.00
43185;DHT22;28803;52.308;19.096;2024-01-15T15:21:27;-0.40;1.70
43185;DHT22;28803;52.308;19.096;2024-01-15T15:23:56;-0.40;14.60
43185;DHT22;28803;52.308;19.096;2024-01-15T15:26:23;-0.40;27.20
43185;DHT22;28803;52.308;19.096;2024-01-15T15:28:50;-0.40;37.50
43185;DHT22;28803;52.308;19.096;2024-01-15T15:31:17;-0.30;48.50
43185;DHT22;28803;52.308;19.096;2024-01-15T15:33:45;-0.40;57.50
43185;DHT22;28803;52.308;19.096;2024-01-15T15:36:12;-0.40;66.00
43185;DHT22;28803;52.308;19.096;2024-01-15T15:38:40;-0.30;74.90
43185;DHT22;28803;52.308;19.096;2024-01-15T15:41:07;-0.30;81.80
43185;DHT22;28803;52.308;19.096;2024-01-15T15:43:36;-0.30;87.90